Time;durP1;ratioP1;P1;durP2;ratioP2;P2;SDS_P1;SDS_P2;PMS_P1;PMS_P2;Temp;Humidity;BMP_temperature;BMP_pressure;BME280_temperature;BME280_humidity;BME280_pressure;Samples;Min_cycle;Max_cycle;Signal;HPM_P1;HPM_P2
2023/02/02 00:01:51;;;;;;;7.90;2.90;;;;;;;1.93;78.27;97749.69;105498;1254;61126;-24
2023/02/02 00:04:22;;;;;;;6.60;2.60;;;;;;;1.80;78.14;97752.09;105337;1254;61122;-24
2023/02/02 00:06:51;;;;;;;5.20;2.60;;;;;;;1.64;78.65;97751.75;105460;1254;74073;-24
2023/02/02 00:09:19;;;;;;;6.30;3.00;;;;;;;1.46;79.01;97754.44;105428;1254;74806;-25
2023/02/02 00:11:49;;;;;;;5.60;1.70;;;;;;;1.33;79.25;97749.97;105861;1254;73900;-24
2023/02/02 00:14:18;;;;;;;5.00;2.30;;;;;;;1.70;79.40;97749.14;105685;1254;61068;-24
2023/02/02 00:16:48;;;;;;;5.50;2.50;;;;;;;2.17;77.82;97745.86;105715;1256;61867;-24
2023/02/02 00:19:25;;;;;;;6.60;3.10;;;;;;;2.26;77.19;97745.20;105507;1259;74448;-24
2023/02/02 00:21:55;;;;;;;7.50;3.10;;;;;;;2.03;77.29;97748.34;105606;1260;75604;-24
2023/02/02 00:24:23;;;;;;;5.00;2.60;;;;;;;1.76;77.92;97746.16;105585;1254;72918;-24
2023/02/02 00:26:54;;;;;;;5.20;2.80;;;;;;;1.57;78.46;97745.66;105816;1254;61140;-24
2023/02/02 00:29:24;;;;;;;12.20;3.30;;;;;;;1.39;78.99;97745.30;105717;1252;61717;-24
2023/02/02 00:31:52;;;;;;;8.20;2.70;;;;;;;1.68;79.17;97740.33;105636;1254;75802;-24
2023/02/02 00:34:21;;;;;;;7.80;3.70;;;;;;;2.11;77.79;97742.32;105840;1254;74934;-25
2023/02/02 00:36:50;;;;;;;7.40;3.00;;;;;;;2.14;77.30;97742.65;105977;1256;74205;-24
2023/02/02 00:39:25;;;;;;;5.90;3.00;;;;;;;1.93;77.40;97739.86;105752;1254;61208;-24
2023/02/02 00:41:54;;;;;;;4.30;2.50;;;;;;;1.67;78.15;97739.70;105626;1259;61853;-24
2023/02/02 00:47:10;;;;;;;7.50;2.90;;;;;;;1.23;79.69;97739.31;105495;1257;75851;-24
2023/02/02 00:49:38;;;;;;;3.90;2.60;;;;;;;1.52;79.83;97735.75;105521;1254;74315;-24
2023/02/02 00:52:07;;;;;;;6.10;2.90;;;;;;;2.02;78.38;97732.46;105589;1254;61054;-24
2023/02/02 00:54:36;;;;;;;5.30;2.80;;;;;;;2.08;77.48;97730.55;105540;1254;61632;-25
2023/02/02 00:57:05;;;;;;;7.00;3.60;;;;;;;1.93;77.47;97729.83;105648;1254;75219;-24
2023/02/02 00:59:34;;;;;;;3.90;2.50;;;;;;;1.70;78.03;97724.67;105500;1259;75979;-24
2023/02/02 01:02:03;;;;;;;6.20;3.10;;;;;;;1.44;78.93;97726.52;105721;1257;74164;-24
2023/02/02 01:04:32;;;;;;;10.40;3.30;;;;;;;1.26;79.48;97731.42;105679;1254;61178;-24
2023/02/02 01:07:01;;;;;;;5.90;2.20;;;;;;;1.61;79.69;97732.27;105745;1254;61617;-24
2023/02/02 01:09:31;;;;;;;7.30;3.00;;;;;;;2.16;78.06;97727.26;105536;1259;74360;-24
2023/02/02 01:12:05;;;;;;;8.80;2.30;;;;;;;2.18;77.28;97727.44;104398;1258;1698996;-25
2023/02/02 01:14:35;;;;;;;6.60;3.20;;;;;;;2.01;77.33;97721.45;105683;1255;74213;-24
2023/02/02 01:17:04;;;;;;;6.90;3.40;;;;;;;1.76;77.80;97728.35;105825;1259;61062;-24
2023/02/02 01:19:32;;;;;;;6.10;3.70;;;;;;;1.51;78.54;97720.39;105590;1257;62133;-24
2023/02/02 01:22:01;;;;;;;4.70;2.90;;;;;;;1.32;79.16;97713.27;105518;1254;75313;-24
2023/02/02 01:24:31;;;;;;;7.60;3.20;;;;;;;1.51;79.55;97716.14;105488;1253;75787;-24
2023/02/02 01:27:00;;;;;;;7.00;3.10;;;;;;;1.97;78.46;97718.57;105531;1254;74158;-24
2023/02/02 01:29:28;;;;;;;6.00;3.10;;;;;;;2.08;77.76;97718.54;105604;1254;61694;-24
2023/02/02 01:31:57;;;;;;;5.00;2.60;;;;;;;1.96;77.62;97723.25;105575;1259;61895;-24
2023/02/02 01:34:26;;;;;;;5.70;3.10;;;;;;;1.73;78.18;97721.20;105558;1254;74989;-24
2023/02/02 01:36:55;;;;;;;6.80;3.50;;;;;;;1.50;78.65;97713.84;105688;1253;75747;-24
2023/02/02 01:39:24;;;;;;;3.90;2.40;;;;;;;1.24;79.70;97720.13;105589;1259;73182;-25
2023/02/02 01:41:53;;;;;;;4.30;2.70;;;;;;;1.41;80.25;97718.84;105806;1253;62851;-24
2023/02/02 01:45:00;;;;;;;5.20;2.30;;;;;;;2.05;78.83;97716.54;105856;1259;61878;-24
2023/02/02 01:47:40;;;;;;;6.20;2.70;;;;;;;2.24;77.52;97713.36;105712;1258;75339;-25
2023/02/02 01:50:09;;;;;;;5.70;3.30;;;;;;;2.02;77.55;97710.73;105705;1259;74192;-24
2023/02/02 01:52:37;;;;;;;5.50;3.00;;;;;;;1.78;77.95;97706.13;105669;1260;73208;-24
2023/02/02 01:55:08;;;;;;;5.20;2.70;;;;;;;1.55;78.73;97711.97;105498;1255;61268;-24
2023/02/02 01:58:03;;;;;;;3.80;2.30;;;;;;;1.32;79.42;97711.58;105570;1260;61942;-25
2023/02/02 02:00:32;;;;;;;4.80;2.30;;;;;;;1.62;79.70;97707.89;105683;1254;74856;-24
2023/02/02 02:03:13;;;;;;;5.70;3.00;;;;;;;2.08;78.46;97709.84;105756;1254;74825;-24
2023/02/02 02:05:45;;;;;;;5.70;3.00;;;;;;;2.11;77.71;97713.39;105610;1254;74369;-24
2023/02/02 02:08:26;;;;;;;3.50;2.10;;;;;;;1.89;77.91;97710.01;105606;1258;61125;-24
2023/02/02 02:10:54;;;;;;;7.70;3.40;;;;;;;1.67;78.63;97714.58;105648;1254;62150;-24
2023/02/02 02:16:17;;;;;;;9.10;3.00;;;;;;;1.45;79.12;97712.11;105757;1254;75196;-24
2023/02/02 02:16:45;;;;;;;5.10;2.60;;;;;;;1.30;80.07;97708.95;105547;1259;74728;-24
2023/02/02 02:28:55;;;;;;;4.50;2.60;;;;;;;1.64;78.88;97715.64;105717;1254;75513;-25
2023/02/02 02:31:58;;;;;;;5.20;2.70;;;;;;;1.42;79.59;97713.78;105768;1259;74657;-24
2023/02/02 02:34:52;;;;;;;4.60;2.90;;;;;;;1.41;80.33;97716.27;105864;1259;73587;-24
2023/02/02 02:37:46;;;;;;;4.40;2.30;;;;;;;2.09;79.07;97718.34;105626;1254;61278;-24
2023/02/02 02:40:24;;;;;;;;;;;;;;;2.19;78.14;97717.81;105728;1259;61396;-24
2023/02/02 02:43:00;;;;;;;4.50;2.60;;;;;;;1.94;78.48;97719.99;105708;1254;75205;-24
2023/02/02 02:45:29;;;;;;;3.10;2.50;;;;;;;1.72;79.07;97721.46;105703;1254;75962;-25
2023/02/02 02:47:58;;;;;;;5.50;2.60;;;;;;;1.51;79.67;97729.67;105780;1253;74349;-24
2023/02/02 02:50:26;;;;;;;3.30;2.50;;;;;;;1.31;80.44;97730.08;105710;1254;61124;-24
2023/02/02 02:53:06;;;;;;;3.40;2.10;;;;;;;1.32;81.37;97726.28;105781;1257;61164;-24
2023/02/02 02:55:55;;;;;;;5.10;2.00;;;;;;;1.98;79.94;97727.77;105617;1254;75090;-25
2023/02/02 02:58:49;;;;;;;3.80;2.40;;;;;;;2.15;78.45;97728.73;105597;1258;75595;-24
2023/02/02 03:01:44;;;;;;;4.70;2.50;;;;;;;2.02;78.55;97730.08;105264;1254;74262;-24
2023/02/02 03:04:20;;;;;;;3.20;2.40;;;;;;;1.79;79.05;97732.09;105533;1254;61054;-24
2023/02/02 03:06:53;;;;;;;5.60;2.90;;;;;;;1.55;79.79;97733.30;105500;1259;61238;-24
2023/02/02 03:09:23;;;;;;;4.30;2.80;;;;;;;1.34;80.41;97730.36;105506;1259;74315;-24
2023/02/02 03:11:52;;;;;;;3.60;2.20;;;;;;;1.32;80.89;97732.79;105536;1259;75777;-24
2023/02/02 03:14:20;;;;;;;3.10;1.90;;;;;;;1.89;80.42;97733.16;105337;1254;73916;-24
2023/02/02 03:16:51;;;;;;;3.40;2.20;;;;;;;2.17;78.99;97732.96;105680;1255;61957;-25
2023/02/02 03:19:20;;;;;;;4.60;2.40;;;;;;;2.04;78.70;97726.14;105661;1254;61071;-24
2023/02/02 03:21:48;;;;;;;4.40;2.60;;;;;;;1.87;79.13;97738.62;105565;1253;75129;-24
2023/02/02 03:24:17;;;;;;;5.40;2.70;;;;;;;1.66;79.56;97742.36;105755;1259;76215;-24
2023/02/02 03:26:46;;;;;;;4.50;2.30;;;;;;;1.42;80.33;97742.70;105884;1259;72655;-24
2023/02/02 03:29:14;;;;;;;2.40;1.60;;;;;;;1.29;81.09;97743.70;105689;1259;62404;-25
2023/02/02 03:31:44;;;;;;;3.20;2.00;;;;;;;1.75;80.71;97747.63;105732;1259;61503;-25
2023/02/02 03:34:12;;;;;;;3.10;2.40;;;;;;;2.17;79.12;97746.21;105761;1254;75419;-24
2023/02/02 03:36:41;;;;;;;3.90;2.50;;;;;;;2.20;78.60;97745.96;105668;1257;75419;-24
2023/02/02 03:39:09;;;;;;;3.40;2.30;;;;;;;2.01;78.68;97748.27;105859;1254;74186;-24
2023/02/02 03:41:38;;;;;;;4.00;2.50;;;;;;;1.76;79.39;97750.80;105849;1257;61042;-24
2023/02/02 03:44:06;;;;;;;3.80;2.60;;;;;;;1.53;79.96;97749.52;105622;1258;61797;-24
2023/02/02 03:46:36;;;;;;;4.60;2.40;;;;;;;1.35;80.60;97755.84;105522;1254;74399;-24
2023/02/02 03:49:04;;;;;;;3.30;1.70;;;;;;;1.50;80.82;97753.67;105520;1258;75748;-24
2023/02/02 03:51:34;;;;;;;4.00;2.30;;;;;;;2.04;79.70;97752.22;105546;1254;74361;-24
2023/02/02 03:54:02;;;;;;;2.00;1.50;;;;;;;2.19;78.59;97748.42;105633;1254;61958;-24
2023/02/02 03:56:31;;;;;;;3.80;1.90;;;;;;;2.05;78.68;97751.09;105537;1259;61582;-25
2023/02/02 03:58:59;;;;;;;3.50;2.30;;;;;;;1.83;79.07;97751.02;105521;1254;75295;-24
2023/02/02 04:01:28;;;;;;;4.40;2.30;;;;;;;1.55;79.84;97746.98;105563;1254;75756;-24
2023/02/02 04:03:57;;;;;;;3.60;2.40;;;;;;;1.35;80.38;97749.13;105706;1254;72847;-24
2023/02/02 04:06:26;;;;;;;3.00;2.20;;;;;;;1.50;80.77;97746.33;105595;1254;61715;-24
2023/02/02 04:08:54;;;;;;;2.50;1.80;;;;;;;1.99;79.50;97745.66;105606;1253;61043;-24
2023/02/02 04:11:23;;;;;;;3.60;1.90;;;;;;;2.11;78.75;97744.86;105639;1256;75351;-24
2023/02/02 04:13:51;;;;;;;3.50;2.20;;;;;;;1.96;78.85;97746.59;105507;1259;75692;-24
2023/02/02 04:16:20;;;;;;;3.80;2.50;;;;;;;1.75;79.36;97741.11;105499;1254;73961;-24
2023/02/02 04:18:49;;;;;;;4.00;2.20;;;;;;;1.50;80.02;97744.41;105498;1254;61141;-24
2023/02/02 04:21:18;;;;;;;2.90;2.20;;;;;;;1.30;80.55;97745.52;105581;1257;61589;-24
2023/02/02 04:23:48;;;;;;;2.10;1.90;;;;;;;1.50;80.86;97745.95;105616;1254;74241;-25
2023/02/02 04:26:16;;;;;;;2.30;1.70;;;;;;;2.08;79.51;97746.79;105803;1254;76219;-24
2023/02/02 04:28:45;;;;;;;3.90;2.40;;;;;;;2.23;78.38;97743.36;105744;1260;73909;-24
2023/02/02 04:31:14;;;;;;;2.50;1.80;;;;;;;2.10;78.38;97741.88;105619;1259;61751;-24
2023/02/02 04:33:42;;;;;;;3.50;2.60;;;;;;;1.90;78.62;97743.36;105646;1258;62008;-24
2023/02/02 04:36:11;;;;;;;3.00;2.40;;;;;;;1.67;79.05;97748.79;105497;1260;75458;-24
2023/02/02 04:38:39;;;;;;;4.90;3.30;;;;;;;1.45;79.73;97750.08;105651;1257;76165;-24
2023/02/02 04:41:10;;;;;;;2.50;1.80;;;;;;;1.36;80.44;97754.41;105806;1254;73611;-24
2023/02/02 04:43:38;;;;;;;2.70;1.90;;;;;;;1.96;80.07;97750.16;105326;1270;61189;-24
2023/02/02 04:46:09;;;;;;;4.00;2.10;;;;;;;2.31;78.43;97747.65;105586;1254;61307;-24
2023/02/02 04:48:39;;;;;;;2.70;1.90;;;;;;;2.20;77.94;97747.04;105848;1258;73841;-24
2023/02/02 04:51:11;;;;;;;4.40;2.70;;;;;;;1.93;78.50;97750.84;105549;1254;75752;-24
2023/02/02 04:53:40;;;;;;;3.70;2.60;;;;;;;1.70;78.81;97749.66;105698;1259;73936;-24
2023/02/02 04:56:11;;;;;;;4.60;2.40;;;;;;;1.45;79.57;97754.02;105726;1254;61246;-24
2023/02/02 04:58:41;;;;;;;2.80;2.40;;;;;;;1.22;80.08;97754.59;105704;1254;61208;-24
2023/02/02 05:01:12;;;;;;;5.40;2.30;;;;;;;1.33;80.65;97757.32;105765;1259;75323;-24
2023/02/02 05:03:40;;;;;;;4.20;2.70;;;;;;;1.95;79.78;97751.95;105627;1259;75715;-25
2023/02/02 05:06:09;;;;;;;7.70;2.50;;;;;;;2.20;78.64;97748.73;105571;1256;73839;-24
2023/02/02 05:08:38;;;;;;;5.30;2.70;;;;;;;2.10;78.38;97745.15;105544;1259;61962;-25
2023/02/02 05:11:11;;;;;;;3.80;2.30;;;;;;;1.87;78.58;97751.30;105551;1254;61185;-24
2023/02/02 05:13:45;;;;;;;4.20;2.60;;;;;;;1.60;78.95;97745.33;105511;1259;74485;-25
2023/02/02 05:16:13;;;;;;;5.50;2.30;;;;;;;1.34;79.62;97746.13;105651;1259;75793;-24
2023/02/02 05:18:50;;;;;;;3.40;2.60;;;;;;;1.16;80.24;97744.87;105720;1254;74166;-24
2023/02/02 05:21:19;;;;;;;4.00;2.40;;;;;;;1.65;80.36;97745.00;105500;1260;61209;-24
2023/02/02 05:23:48;;;;;;;7.60;2.60;;;;;;;2.05;78.92;97748.52;105506;1259;61164;-24
2023/02/02 05:26:19;;;;;;;5.20;2.60;;;;;;;2.04;78.27;97752.85;105556;1259;74408;-24
2023/02/02 05:28:48;;;;;;;4.10;2.50;;;;;;;1.82;78.59;97762.02;105563;1259;74120;-24
2023/02/02 05:31:17;;;;;;;5.00;2.80;;;;;;;1.54;79.23;97756.30;105570;1260;73949;-24
2023/02/02 05:33:46;;;;;;;4.50;3.40;;;;;;;1.27;80.13;97757.67;105586;1254;61275;-24
2023/02/02 05:36:14;;;;;;;2.70;2.00;;;;;;;1.13;80.75;97757.90;105870;1259;61868;-24
2023/02/02 05:38:43;;;;;;;2.70;1.90;;;;;;;1.52;80.57;97750.95;105914;1257;75173;-24
2023/02/02 05:41:11;;;;;;;4.20;3.30;;;;;;;1.84;79.37;97760.70;105658;1259;73776;-25
2023/02/02 05:43:40;;;;;;;4.40;2.60;;;;;;;1.80;79.06;97754.97;105537;1257;73979;-23
2023/02/02 05:46:09;;;;;;;5.30;3.00;;;;;;;1.57;79.83;97754.42;105551;1253;61061;-24
2023/02/02 05:48:38;;;;;;;15.00;7.30;;;;;;;1.42;79.85;97758.27;105554;1254;61019;-24
2023/02/02 05:51:43;;;;;;;11.30;5.60;;;;;;;1.24;80.31;97766.80;105519;1257;75307;-24
2023/02/02 05:54:18;;;;;;;4.60;2.90;;;;;;;1.10;80.97;97782.39;105061;1263;74742;-26
2023/02/02 05:56:48;;;;;;;4.40;2.60;;;;;;;1.79;80.49;97778.84;105103;1260;74204;-25
2023/02/02 05:59:17;;;;;;;3.50;2.40;;;;;;;2.29;78.75;97778.12;105232;1261;61978;-24
2023/02/02 06:01:46;;;;;;;3.10;2.50;;;;;;;2.24;77.99;97781.84;105375;1265;61231;-24
2023/02/02 06:04:14;;;;;;;4.50;2.90;;;;;;;2.05;78.19;97787.90;105401;1260;75375;-24
2023/02/02 06:06:43;;;;;;;5.20;3.00;;;;;;;1.75;78.73;97792.45;105223;1267;75792;-24
2023/02/02 06:09:12;;;;;;;7.50;3.60;;;;;;;1.50;79.50;97792.16;105243;1266;74389;-24
2023/02/02 06:11:42;;;;;;;7.60;3.50;;;;;;;1.31;79.91;97788.73;105104;1261;61217;-24
2023/02/02 06:14:11;;;;;;;4.70;3.00;;;;;;;1.29;80.48;97790.74;104912;1267;61524;-24
2023/02/02 06:16:40;;;;;;;4.90;3.20;;;;;;;1.87;79.78;97787.16;105050;1264;75509;-24
2023/02/02 06:19:08;;;;;;;4.90;3.20;;;;;;;2.13;78.53;97789.10;105155;1263;73968;-24
2023/02/02 06:21:37;;;;;;;5.30;3.10;;;;;;;2.02;78.12;97789.50;105053;1261;73621;-24
2023/02/02 06:24:06;;;;;;;5.50;3.10;;;;;;;1.76;78.47;97788.93;105102;1260;61102;-24
2023/02/02 06:26:34;;;;;;;4.90;3.50;;;;;;;1.50;79.22;97796.80;105281;1263;61599;-24
2023/02/02 06:29:03;;;;;;;3.90;2.70;;;;;;;1.31;79.94;97802.45;105640;1259;74431;-24
2023/02/02 06:31:32;;;;;;;4.40;2.50;;;;;;;1.16;80.44;97799.40;105564;1257;75791;-24
2023/02/02 06:34:02;;;;;;;6.00;3.60;;;;;;;1.54;80.32;97795.84;105748;1254;74168;-24
2023/02/02 06:36:30;;;;;;;6.70;3.10;;;;;;;1.99;78.87;97794.33;105509;1264;62339;-24
2023/02/02 06:38:59;;;;;;;5.20;3.40;;;;;;;2.09;78.29;97797.21;105757;1257;62021;-24
2023/02/02 06:41:27;;;;;;;4.80;2.80;;;;;;;1.95;78.44;97798.51;105916;1257;75554;-24
2023/02/02 06:43:56;;;;;;;6.20;3.40;;;;;;;1.81;78.91;97796.70;105871;1260;74848;-24
2023/02/02 06:46:24;;;;;;;8.30;3.70;;;;;;;1.63;79.27;97800.52;105635;1258;74268;-24
2023/02/02 06:48:53;;;;;;;7.20;3.50;;;;;;;1.47;79.74;97799.01;105700;1260;61164;-24
2023/02/02 06:51:22;;;;;;;8.70;3.00;;;;;;;1.58;80.04;97801.38;105655;1258;61789;-25
2023/02/02 06:53:50;;;;;;;5.30;3.40;;;;;;;2.18;78.81;97796.77;105847;1258;75453;-24
2023/02/02 06:56:19;;;;;;;5.00;3.20;;;;;;;2.51;77.62;97796.84;105770;1258;75987;-24
2023/02/02 06:58:47;;;;;;;9.20;3.40;;;;;;;2.45;77.16;97796.70;105603;1256;72919;-24
2023/02/02 07:01:16;;;;;;;10.30;3.80;;;;;;;2.20;77.10;97800.94;105536;1260;61058;-24
2023/02/02 07:03:47;;;;;;;8.60;3.60;;;;;;;1.92;77.69;97800.55;105550;1254;61606;-24
2023/02/02 07:06:21;;;;;;;4.40;3.30;;;;;;;1.68;78.37;97805.03;105500;1263;74366;-25
2023/02/02 07:08:50;;;;;;;5.60;3.70;;;;;;;1.48;78.88;97806.67;105629;1269;74822;-24
2023/02/02 07:11:31;;;;;;;6.70;3.00;;;;;;;1.62;79.60;97807.13;105725;1260;72851;-24
2023/02/02 07:14:04;;;;;;;7.80;2.90;;;;;;;2.21;78.36;97804.11;105848;1255;61170;-24
2023/02/02 07:16:32;;;;;;;5.20;2.90;;;;;;;2.36;77.31;97812.04;105713;1267;61160;-24
2023/02/02 07:19:01;;;;;;;5.00;3.40;;;;;;;2.29;77.32;97815.29;105604;1254;75171;-24
2023/02/02 07:21:34;;;;;;;4.30;3.10;;;;;;;2.12;77.64;97819.10;105552;1257;75604;-24
2023/02/02 07:24:04;;;;;;;5.20;3.30;;;;;;;1.99;78.15;97820.31;105705;1256;74209;-24
2023/02/02 07:26:34;;;;;;;7.50;4.50;;;;;;;1.86;78.50;97825.58;105582;1254;61376;-24
2023/02/02 07:29:04;;;;;;;5.30;3.00;;;;;;;1.75;79.36;97821.00;105412;1254;61079;-25
2023/02/02 07:31:33;;;;;;;4.60;3.10;;;;;;;2.36;78.73;97822.33;105572;1255;75153;-25
2023/02/02 07:34:04;;;;;;;6.50;3.40;;;;;;;2.90;76.97;97828.79;105784;1266;75610;-24
2023/02/02 07:36:33;;;;;;;4.20;2.60;;;;;;;2.99;76.01;97827.51;105800;1257;73123;-24
2023/02/02 07:39:03;;;;;;;5.90;3.70;;;;;;;2.77;75.77;97822.98;105525;1258;61636;-25
2023/02/02 07:41:35;;;;;;;4.60;2.70;;;;;;;2.47;76.22;97823.35;105382;1254;61846;-25
2023/02/02 07:44:04;;;;;;;7.00;4.60;;;;;;;2.27;76.68;97824.81;105407;1260;75149;-25
2023/02/02 07:46:34;;;;;;;8.70;4.10;;;;;;;2.06;77.46;97828.20;105582;1256;75844;-25
2023/02/02 07:49:04;;;;;;;5.80;3.30;;;;;;;2.08;77.89;97827.09;105741;1259;74855;-25
2023/02/02 07:51:34;;;;;;;7.20;3.70;;;;;;;2.54;76.89;97830.16;105646;1259;61062;-25
2023/02/02 07:54:06;;;;;;;5.90;3.80;;;;;;;2.71;75.90;97825.98;105511;1259;61830;-25
2023/02/02 07:56:36;;;;;;;6.00;4.10;;;;;;;2.61;75.87;97827.83;105598;1259;75350;-25
2023/02/02 07:59:04;;;;;;;8.50;3.80;;;;;;;2.49;76.29;97827.81;105485;1258;74808;-25
2023/02/02 08:01:33;;;;;;;4.70;3.10;;;;;;;2.29;76.69;97829.11;105750;1259;73881;-24
2023/02/02 08:04:02;;;;;;;8.90;4.20;;;;;;;2.12;77.03;97829.20;105739;1254;61155;-25
2023/02/02 08:06:35;;;;;;;5.50;3.40;;;;;;;1.95;77.52;97828.97;105783;1256;61204;-25
2023/02/02 08:09:06;;;;;;;8.30;4.20;;;;;;;2.40;77.61;97832.01;105274;1260;74700;-25
2023/02/02 08:11:36;;;;;;;5.40;3.10;;;;;;;3.03;75.75;97832.15;105648;1255;75626;-25
2023/02/02 08:14:05;;;;;;;6.50;4.00;;;;;;;3.20;74.52;97833.58;105652;1259;73724;-25
2023/02/02 08:16:34;;;;;;;8.40;3.90;;;;;;;3.20;74.48;97835.95;105668;1259;61177;-25
2023/02/02 08:19:04;;;;;;;6.60;3.80;;;;;;;3.08;74.37;97833.36;105602;1257;61759;-25
2023/02/02 08:21:33;;;;;;;8.00;4.20;;;;;;;3.02;74.46;97831.95;105885;1266;75626;-25
2023/02/02 08:24:03;;;;;;;7.80;4.80;;;;;;;2.92;74.50;97827.84;105608;1255;74898;-24
2023/02/02 08:26:34;;;;;;;7.50;4.20;;;;;;;2.79;75.08;97825.44;105545;1258;74771;-25
2023/02/02 08:29:05;;;;;;;4.10;2.80;;;;;;;2.72;75.27;97822.48;105854;1258;61220;-24
2023/02/02 08:31:40;;;;;;;5.20;2.60;;;;;;;2.93;75.42;97820.00;105667;1260;61908;-24
2023/02/02 08:34:10;;;;;;;7.00;4.00;;;;;;;3.38;73.01;97826.30;105655;1260;75812;-25
2023/02/02 08:36:39;;;;;;;6.60;3.80;;;;;;;3.38;72.88;97827.83;105334;1259;74849;-24
2023/02/02 08:39:10;;;;;;;5.70;3.70;;;;;;;3.50;72.72;97828.21;105561;1257;74311;-24
2023/02/02 08:41:39;;;;;;;4.90;3.40;;;;;;;3.35;73.24;97828.77;105516;1255;61103;-24
2023/02/02 08:44:08;;;;;;;7.10;4.20;;;;;;;3.01;73.57;97832.50;105843;1254;60997;-25
2023/02/02 08:46:39;;;;;;;6.80;4.30;;;;;;;2.77;74.60;97830.69;105555;1260;75521;-24
2023/02/02 08:49:11;;;;;;;8.00;5.00;;;;;;;2.86;74.92;97833.39;105545;1259;75912;-24
2023/02/02 08:51:40;;;;;;;4.70;3.20;;;;;;;2.97;74.73;97831.05;105453;1259;74281;-24
2023/02/02 08:54:09;;;;;;;6.70;3.80;;;;;;;3.40;73.36;97831.48;105862;1254;61098;-24
2023/02/02 08:56:37;;;;;;;6.10;3.60;;;;;;;3.68;72.30;97832.04;105856;1266;61537;-25
2023/02/02 09:06:47;;;;;;;6.30;3.70;;;;;;;3.51;72.03;97830.02;102607;1293;600054;-26
2023/02/02 09:09:15;;;;;;;7.40;3.50;;;;;;;3.38;72.40;97830.05;104857;1273;61162;-26
2023/02/02 09:11:45;;;;;;;6.90;3.50;;;;;;;3.11;73.13;97825.64;104855;1272;62063;-26
2023/02/02 09:14:14;;;;;;;4.70;2.30;;;;;;;2.90;73.26;97823.48;104848;1272;73884;-25
2023/02/02 09:16:43;;;;;;;5.50;2.90;;;;;;;2.98;73.87;97820.00;104885;1272;75951;-25
2023/02/02 09:19:14;;;;;;;4.50;2.40;;;;;;;3.44;72.47;97819.71;104787;1268;1777916;-27
2023/02/02 09:21:43;;;;;;;4.30;2.70;;;;;;;3.64;71.89;97821.38;104855;1270;61264;-25
2023/02/02 09:24:12;;;;;;;6.10;3.00;;;;;;;3.57;72.01;97820.52;105115;1265;61717;-26
2023/02/02 09:26:42;;;;;;;7.00;3.60;;;;;;;3.41;71.92;97818.04;104881;1272;62191;-26
2023/02/02 09:29:11;;;;;;;8.20;3.50;;;;;;;3.17;72.76;97819.41;104753;1269;72716;-25
2023/02/02 09:31:41;;;;;;;5.80;3.00;;;;;;;2.99;73.34;97815.66;104809;1267;75770;-25
2023/02/02 09:34:11;;;;;;;4.30;2.80;;;;;;;2.80;73.90;97813.55;105093;1269;74129;-25
2023/02/02 09:36:40;;;;;;;9.20;2.70;;;;;;;2.76;74.57;97812.44;105112;1263;61535;-26
2023/02/02 09:39:11;;;;;;;3.50;2.80;;;;;;;3.11;74.14;97812.90;105158;1258;61635;-26
2023/02/02 09:41:39;;;;;;;3.00;2.40;;;;;;;3.42;73.07;97810.95;105293;1260;73138;-25
2023/02/02 09:44:27;;;;;;;3.50;2.20;;;;;;;3.42;72.91;97811.44;105543;1263;75914;-25
2023/02/02 09:47:06;;;;;;;5.30;3.30;;;;;;;3.20;73.21;97805.48;105410;1257;74071;-26
2023/02/02 09:50:09;;;;;;;3.00;2.40;;;;;;;3.01;73.58;97807.77;105700;1255;61065;-26
2023/02/02 09:53:15;;;;;;;6.30;3.60;;;;;;;2.74;74.94;97803.50;105623;1259;61870;-26
2023/02/02 09:55:47;;;;;;;5.40;3.50;;;;;;;2.53;75.91;97804.90;105629;1254;74340;-26
2023/02/02 09:58:15;;;;;;;6.60;2.90;;;;;;;2.70;77.02;97813.36;105620;1270;75678;-23
2023/02/02 10:00:54;;;;;;;5.60;3.00;;;;;;;3.17;76.12;97814.58;105699;1257;73914;-25
2023/02/02 10:03:31;;;;;;;6.30;3.10;;;;;;;2.99;76.25;97811.51;105658;1260;61167;-25
2023/02/02 10:06:24;;;;;;;5.00;3.30;;;;;;;2.81;77.19;97815.18;105693;1259;61116;-26
2023/02/02 10:09:01;;;;;;;9.00;4.50;;;;;;;2.61;77.37;97809.67;105702;1255;74179;-26
2023/02/02 10:12:08;;;;;;;7.00;3.80;;;;;;;2.33;78.88;97811.76;105393;1263;75991;-25
2023/02/02 10:14:44;;;;;;;2.80;2.10;;;;;;;2.04;80.11;97810.89;105701;1254;73086;-25
2023/02/02 10:17:19;;;;;;;5.10;3.00;;;;;;;2.54;79.43;97809.31;105725;1259;61138;-25
2023/02/02 10:19:49;;;;;;;5.10;2.80;;;;;;;2.78;78.74;97810.39;105687;1260;61589;-25
2023/02/02 10:22:20;;;;;;;4.80;3.00;;;;;;;2.66;79.09;97812.91;105586;1262;74596;-25
2023/02/02 10:24:49;;;;;;;4.20;3.30;;;;;;;2.63;78.73;97811.81;105639;1259;75788;-25
2023/02/02 10:27:29;;;;;;;4.00;2.80;;;;;;;2.43;79.54;97814.82;105555;1261;74234;-25
2023/02/02 10:29:59;;;;;;;3.60;3.20;;;;;;;2.16;80.79;97813.58;105630;1255;61185;-25
2023/02/02 10:32:34;;;;;;;5.40;2.20;;;;;;;2.08;81.96;97812.17;105536;1254;61075;-26
2023/02/02 10:35:07;;;;;;;6.70;3.10;;;;;;;2.66;81.08;97811.58;105234;1260;74859;-25
2023/02/02 10:38:23;;;;;;;3.20;1.90;;;;;;;2.95;80.30;97813.02;105620;1259;75277;-25
2023/02/02 10:41:01;;;;;;;3.60;2.10;;;;;;;2.81;79.81;97812.07;105183;1260;74204;-26
2023/02/02 10:43:49;;;;;;;1.80;1.30;;;;;;;2.69;80.14;97808.80;105550;1260;61186;-26
2023/02/02 10:46:32;;;;;;;3.90;2.50;;;;;;;2.34;81.29;97806.53;105611;1254;61876;-25
2023/02/02 10:49:32;;;;;;;2.60;2.10;;;;;;;2.60;82.52;97803.25;105332;1254;73887;-25
2023/02/02 10:52:04;;;;;;;2.20;1.60;;;;;;;3.33;80.27;97800.43;105471;1254;76129;-25
2023/02/02 10:54:55;;;;;;;1.80;1.30;;;;;;;3.45;78.40;97801.84;105459;1260;73043;-25
2023/02/02 10:57:50;;;;;;;1.80;1.50;;;;;;;3.27;77.47;97797.08;105489;1254;61733;-25
2023/02/02 11:00:23;;;;;;;2.50;1.40;;;;;;;2.99;79.00;97796.65;105690;1259;61945;-25
2023/02/02 11:02:52;;;;;;;4.50;1.50;;;;;;;2.85;79.02;97796.42;105690;1259;73620;-25
2023/02/02 11:08:16;;;;;;;2.30;1.50;;;;;;;3.30;78.24;97791.01;105629;1254;73957;-25
2023/02/02 11:10:46;;;;;;;2.20;1.40;;;;;;;3.54;76.89;97795.29;105496;1254;61052;-25
2023/02/02 11:13:24;;;;;;;1.80;1.50;;;;;;;3.49;76.66;97800.66;105653;1260;61536;-25
2023/02/02 11:16:15;;;;;;;5.10;1.90;;;;;;;3.25;76.94;97797.89;105672;1260;73697;-25
2023/02/02 11:18:44;;;;;;;3.00;2.00;;;;;;;2.89;77.20;97796.10;105663;1254;75351;-25
2023/02/02 11:21:29;;;;;;;3.70;1.80;;;;;;;2.69;78.01;97792.18;105637;1258;72991;-25
2023/02/02 11:24:05;;;;;;;1.90;1.30;;;;;;;2.79;78.41;97792.37;105609;1264;62081;-25
2023/02/02 11:26:47;;;;;;;2.40;1.70;;;;;;;3.24;77.47;97790.94;105477;1254;61148;-25
2023/02/02 11:29:19;;;;;;;2.30;1.70;;;;;;;3.33;76.65;97794.04;105506;1261;73528;-25
2023/02/02 11:31:47;;;;;;;2.30;1.70;;;;;;;3.15;76.89;97796.57;105310;1254;75788;-25
2023/02/02 11:34:18;;;;;;;3.20;2.00;;;;;;;2.91;77.14;97794.41;105517;1255;73629;-25
2023/02/02 11:37:19;;;;;;;2.00;1.70;;;;;;;2.59;77.51;97796.09;105415;1261;61074;-25
2023/02/02 11:39:48;;;;;;;2.30;1.70;;;;;;;2.30;78.79;97798.59;105503;1254;61064;-25
2023/02/02 11:42:23;;;;;;;2.80;1.80;;;;;;;2.42;79.23;97798.96;105491;1255;74453;-26
2023/02/02 11:44:54;;;;;;;3.80;1.70;;;;;;;2.91;78.43;97797.70;105325;1263;75635;-25
2023/02/02 11:47:28;;;;;;;2.80;2.40;;;;;;;3.05;77.51;97802.05;105590;1255;73984;-25
2023/02/02 11:49:57;;;;;;;3.30;2.20;;;;;;;2.88;77.43;97798.36;105604;1255;61871;-25
2023/02/02 11:52:28;;;;;;;2.60;2.20;;;;;;;2.68;77.78;97800.09;105527;1259;61172;-25
2023/02/02 11:55:00;;;;;;;3.20;2.40;;;;;;;2.44;78.47;97794.21;105173;1261;74395;-26
2023/02/02 11:57:30;;;;;;;3.00;1.70;;;;;;;2.24;79.15;97796.59;105384;1260;75853;-25
2023/02/02 12:00:11;;;;;;;3.50;2.10;;;;;;;2.09;80.37;97797.92;105473;1258;74111;-26
2023/02/02 12:02:47;;;;;;;2.20;1.70;;;;;;;2.69;79.53;97797.51;105407;1254;61503;-26
2023/02/02 12:05:19;;;;;;;4.50;2.70;;;;;;;2.98;77.62;97794.64;105610;1255;62655;-25
2023/02/02 12:07:48;;;;;;;4.80;2.30;;;;;;;2.92;77.38;97793.88;105665;1254;74668;-25
2023/02/02 12:10:27;;;;;;;4.40;2.60;;;;;;;2.74;77.76;97793.68;105718;1257;75832;-26
2023/02/02 12:13:09;;;;;;;3.80;2.80;;;;;;;2.44;78.94;97791.48;105666;1256;74292;-26
2023/02/02 12:15:45;;;;;;;4.30;3.20;;;;;;;2.23;79.99;97795.77;105594;1254;61052;-26
2023/02/02 12:18:33;;;;;;;4.70;2.30;;;;;;;2.19;81.06;97803.08;105591;1261;61988;-26
2023/02/02 12:21:06;;;;;;;2.90;1.80;;;;;;;2.97;79.72;97799.13;105442;1254;73524;-25
2023/02/02 12:23:59;;;;;;;2.80;2.10;;;;;;;3.39;77.44;97798.77;105279;1254;75586;-25